Time;durP1;ratioP1;P1;durP2;ratioP2;P2;SDS_P1;SDS_P2;PMS_P1;PMS_P2;Temp;Humidity;BMP_temperature;BMP_pressure;BME280_temperature;BME280_humidity;BME280_pressure;Samples;Min_cycle;Max_cycle;Signal;HPM_P1;HPM_P2
2022/08/31 00:04:41;;;;;;;12.33;9.80;;;;;;;;;;1774513;80;21058;-60
2022/08/31 00:07:07;;;;;;;12.10;9.48;;;;;;;;;;1775504;80;21082;-60
2022/08/31 00:09:35;;;;;;;15.30;9.78;;;;;;;;;;1774011;80;21067;-60
2022/08/31 00:12:03;;;;;;;17.80;9.43;;;;;;;;;;1775830;80;21047;-61
2022/08/31 00:14:31;;;;;;;17.50;9.68;;;;;;;;;;1777310;80;21018;-60
2022/08/31 00:16:57;;;;;;;14.75;10.10;;;;;;;;;;1774110;80;21157;-60
2022/08/31 00:19:25;;;;;;;13.93;9.45;;;;;;;;;;1772562;80;21109;-60
2022/08/31 00:21:53;;;;;;;13.85;9.48;;;;;;;;;;1770906;80;21109;-60
2022/08/31 00:24:20;;;;;;;13.83;9.28;;;;;;;;;;1769984;79;21003;-60
2022/08/31 00:26:48;;;;;;;12.50;9.45;;;;;;;;;;1764524;80;21070;-61
2022/08/31 00:29:16;;;;;;;12.93;9.63;;;;;;;;;;1774143;80;20984;-60
2022/08/31 00:31:43;;;;;;;12.50;9.63;;;;;;;;;;1770953;80;21510;-60
2022/08/31 00:34:10;;;;;;;17.98;10.10;;;;;;;;;;1770313;80;21058;-60
2022/08/31 00:36:38;;;;;;;14.43;10.55;;;;;;;;;;1771655;80;21070;-61
2022/08/31 00:39:06;;;;;;;16.00;10.82;;;;;;;;;;1772627;79;21109;-60
2022/08/31 00:41:37;;;;;;;14.38;11.10;;;;;;;;;;1774648;80;21038;-60
2022/08/31 00:44:07;;;;;;;15.58;10.85;;;;;;;;;;1767391;80;21053;-60
2022/08/31 00:46:37;;;;;;;14.03;10.70;;;;;;;;;;1773593;79;21030;-60
2022/08/31 00:49:23;;;;;;;18.87;10.05;;;;;;;;;;1770143;80;21195;-60
2022/08/31 00:51:56;;;;;;;15.95;10.75;;;;;;;;;;1760827;80;21000;-60
2022/08/31 00:54:26;;;;;;;15.28;11.38;;;;;;;;;;1773189;80;21039;-60
2022/08/31 00:56:53;;;;;;;21.07;11.53;;;;;;;;;;1773295;80;21050;-60
2022/08/31 00:59:22;;;;;;;14.38;10.80;;;;;;;;;;1775406;80;21135;-60
2022/08/31 01:01:49;;;;;;;23.00;12.13;;;;;;;;;;1764135;80;20992;-60
2022/08/31 01:04:16;;;;;;;17.37;11.45;;;;;;;;;;1769985;80;21144;-60
2022/08/31 01:06:44;;;;;;;14.93;11.57;;;;;;;;;;1775166;80;21530;-61
2022/08/31 01:09:12;;;;;;;19.32;11.57;;;;;;;;;;1776547;80;21042;-60
2022/08/31 01:11:41;;;;;;;13.00;11.05;;;;;;;;;;1763251;80;20988;-60
2022/08/31 01:14:08;;;;;;;17.70;11.12;;;;;;;;;;1774808;80;21094;-60
2022/08/31 01:16:41;;;;;;;17.45;11.40;;;;;;;;;;1774485;79;20995;-60
2022/08/31 01:19:21;;;;;;;15.72;11.50;;;;;;;;;;1775497;80;21168;-60
2022/08/31 01:22:03;;;;;;;17.67;11.73;;;;;;;;;;1773147;80;21511;-59
2022/08/31 01:24:33;;;;;;;19.05;11.90;;;;;;;;;;1753233;80;21105;-60
2022/08/31 01:27:03;;;;;;;16.60;11.85;;;;;;;;;;1768282;80;21007;-60
2022/08/31 01:29:31;;;;;;;18.55;11.97;;;;;;;;;;1767543;80;21065;-59
2022/08/31 01:31:58;;;;;;;17.55;12.75;;;;;;;;;;1774608;80;21007;-60
2022/08/31 01:34:25;;;;;;;19.55;12.30;;;;;;;;;;1767604;80;21038;-60
2022/08/31 01:36:53;;;;;;;18.50;12.00;;;;;;;;;;1770704;80;21050;-60
2022/08/31 01:39:19;;;;;;;17.42;11.73;;;;;;;;;;1769681;80;21015;-60
2022/08/31 01:41:46;;;;;;;19.52;11.88;;;;;;;;;;1767031;80;21034;-61
2022/08/31 01:44:17;;;;;;;19.85;10.95;;;;;;;;;;1775795;80;21062;-60
2022/08/31 01:46:44;;;;;;;15.75;10.53;;;;;;;;;;1773715;80;21039;-61
2022/08/31 01:49:13;;;;;;;16.73;10.80;;;;;;;;;;1766070;80;21087;-60
2022/08/31 01:51:40;;;;;;;16.60;10.65;;;;;;;;;;1766677;80;21051;-60
2022/08/31 01:54:07;;;;;;;16.62;11.25;;;;;;;;;;1770384;81;21046;-60
2022/08/31 01:56:43;;;;;;;13.43;11.12;;;;;;;;;;1771451;80;21042;-60
2022/08/31 01:59:14;;;;;;;15.72;11.10;;;;;;;;;;1767128;80;21089;-60
2022/08/31 02:01:48;;;;;;;15.67;10.67;;;;;;;;;;1772258;80;21078;-61
2022/08/31 02:04:18;;;;;;;17.82;10.95;;;;;;;;;;1773056;80;21467;-60
2022/08/31 02:06:47;;;;;;;16.00;10.75;;;;;;;;;;1774460;80;21113;-60
2022/08/31 02:09:15;;;;;;;14.28;10.93;;;;;;;;;;1768715;80;21000;-60
2022/08/31 02:11:41;;;;;;;15.38;11.22;;;;;;;;;;1777275;81;21060;-59
2022/08/31 02:14:08;;;;;;;20.62;12.28;;;;;;;;;;1757093;80;21035;-60
2022/08/31 02:16:36;;;;;;;17.35;12.25;;;;;;;;;;1757221;80;21506;-59
2022/08/31 02:19:04;;;;;;;19.52;11.05;;;;;;;;;;1751468;81;21034;-60
2022/08/31 02:21:32;;;;;;;22.40;11.65;;;;;;;;;;1756886;81;21173;-60
2022/08/31 02:24:00;;;;;;;15.08;11.40;;;;;;;;;;1763543;81;21039;-60
2022/08/31 02:26:27;;;;;;;17.25;11.55;;;;;;;;;;1755965;80;21030;-59
2022/08/31 02:28:54;;;;;;;14.63;11.78;;;;;;;;;;1762881;80;21044;-59
2022/08/31 02:31:20;;;;;;;20.55;12.50;;;;;;;;;;1747461;80;21078;-59
2022/08/31 02:33:49;;;;;;;18.40;12.10;;;;;;;;;;1763826;80;21034;-60
2022/08/31 02:36:16;;;;;;;20.12;12.07;;;;;;;;;;1753641;81;21091;-59
2022/08/31 02:38:43;;;;;;;17.77;12.40;;;;;;;;;;1756956;80;21030;-60
2022/08/31 02:41:10;;;;;;;19.12;11.75;;;;;;;;;;1758797;80;21103;-60
2022/08/31 02:43:39;;;;;;;17.60;12.80;;;;;;;;;;1758232;80;21024;-59
2022/08/31 02:46:05;;;;;;;18.17;12.33;;;;;;;;;;1762627;80;21101;-60
2022/08/31 02:48:35;;;;;;;15.98;13.08;;;;;;;;;;1759680;80;21054;-60
2022/08/31 02:51:06;;;;;;;17.52;12.37;;;;;;;;;;1760184;81;21063;-59
2022/08/31 02:53:33;;;;;;;19.20;12.95;;;;;;;;;;1764276;81;20984;-61
2022/08/31 02:56:01;;;;;;;22.02;12.55;;;;;;;;;;1753398;80;21039;-61
2022/08/31 02:58:28;;;;;;;16.55;12.30;;;;;;;;;;1765382;80;21060;-59
2022/08/31 03:00:55;;;;;;;17.12;12.65;;;;;;;;;;1766655;81;21062;-60
2022/08/31 03:03:25;;;;;;;19.60;12.50;;;;;;;;;;1755638;81;21050;-60
2022/08/31 03:05:53;;;;;;;17.10;12.18;;;;;;;;;;1755350;81;21030;-60
2022/08/31 03:08:21;;;;;;;19.12;12.40;;;;;;;;;;1755388;80;21094;-59
2022/08/31 03:10:48;;;;;;;19.15;13.22;;;;;;;;;;1755912;80;21044;-60
2022/08/31 03:13:17;;;;;;;20.25;13.00;;;;;;;;;;1771931;80;21024;-60
2022/08/31 03:15:45;;;;;;;18.60;13.45;;;;;;;;;;1759703;80;21055;-60
2022/08/31 03:18:14;;;;;;;16.75;12.82;;;;;;;;;;1756630;80;21035;-60
2022/08/31 03:20:41;;;;;;;16.07;13.03;;;;;;;;;;1777110;80;21080;-60
2022/08/31 03:23:08;;;;;;;18.95;13.68;;;;;;;;;;1760890;80;21027;-60
2022/08/31 03:25:35;;;;;;;20.45;12.47;;;;;;;;;;1755147;80;21514;-60
2022/08/31 03:28:02;;;;;;;17.95;12.82;;;;;;;;;;1760275;80;20995;-60
2022/08/31 03:30:30;;;;;;;17.05;13.05;;;;;;;;;;1764519;80;21071;-59
2022/08/31 03:33:01;;;;;;;17.73;13.62;;;;;;;;;;1755138;80;21004;-59
2022/08/31 03:35:30;;;;;;;15.83;12.75;;;;;;;;;;1766913;80;21015;-59
2022/08/31 03:37:56;;;;;;;21.00;12.78;;;;;;;;;;1763051;80;21035;-59
2022/08/31 03:44:04;;;;;;;18.10;12.75;;;;;;;;;;1767071;80;21019;-60
2022/08/31 03:46:34;;;;;;;15.40;12.93;;;;;;;;;;1773088;80;21142;-59
2022/08/31 03:49:02;;;;;;;18.67;12.85;;;;;;;;;;1769544;80;21672;-60
2022/08/31 03:51:30;;;;;;;20.85;13.53;;;;;;;;;;1763750;80;21502;-59
2022/08/31 03:53:57;;;;;;;18.77;13.75;;;;;;;;;;1757578;81;21049;-59
2022/08/31 03:56:25;;;;;;;16.35;12.82;;;;;;;;;;1758270;80;21075;-59
2022/08/31 03:58:51;;;;;;;21.40;13.80;;;;;;;;;;1750163;81;21217;-59
2022/08/31 04:01:36;;;;;;;21.50;13.88;;;;;;;;;;1730356;80;21038;-58
2022/08/31 04:04:21;;;;;;;19.17;14.63;;;;;;;;;;1764429;81;21540;-59
2022/08/31 04:07:06;;;;;;;22.98;16.25;;;;;;;;;;1761335;79;21095;-60
2022/08/31 04:09:47;;;;;;;23.95;15.38;;;;;;;;;;1711727;80;21025;-60
2022/08/31 04:12:19;;;;;;;22.55;14.50;;;;;;;;;;1757933;80;21072;-59
2022/08/31 04:15:05;;;;;;;20.60;14.58;;;;;;;;;;1760471;81;21039;-60
2022/08/31 04:17:35;;;;;;;22.93;15.60;;;;;;;;;;1730415;81;21024;-60
2022/08/31 04:20:06;;;;;;;24.80;16.20;;;;;;;;;;1759293;81;21004;-60
2022/08/31 04:22:37;;;;;;;19.70;15.45;;;;;;;;;;1764088;80;21604;-60
2022/08/31 04:25:21;;;;;;;23.35;16.05;;;;;;;;;;1756890;81;21060;-59
2022/08/31 04:27:49;;;;;;;23.32;16.42;;;;;;;;;;1755792;80;21035;-59
2022/08/31 04:30:16;;;;;;;23.55;16.70;;;;;;;;;;1758480;81;21085;-60
2022/08/31 04:32:43;;;;;;;22.37;17.00;;;;;;;;;;1734315;81;21518;-60
2022/08/31 04:35:09;;;;;;;21.82;16.90;;;;;;;;;;1758500;80;21093;-59
2022/08/31 04:37:39;;;;;;;20.60;16.17;;;;;;;;;;1753125;81;21070;-60
2022/08/31 04:40:18;;;;;;;27.02;17.35;;;;;;;;;;1762969;80;21067;-60
2022/08/31 04:42:40;;;;;;;22.67;18.37;;;;;;;;;;1742652;81;21000;-59
2022/08/31 04:45:08;;;;;;;24.82;19.00;;;;;;;;;;1757159;80;21039;-59
2022/08/31 04:47:35;;;;;;;29.20;19.25;;;;;;;;;;1761213;80;21490;-59
2022/08/31 04:50:03;;;;;;;28.42;19.42;;;;;;;;;;1755756;80;21095;-60
2022/08/31 04:52:30;;;;;;;24.30;18.90;;;;;;;;;;1772821;80;21325;-60
2022/08/31 04:54:57;;;;;;;27.42;18.85;;;;;;;;;;1764345;80;21099;-59
2022/08/31 04:57:23;;;;;;;30.45;19.57;;;;;;;;;;1763491;80;21048;-60
2022/08/31 04:59:50;;;;;;;27.93;20.12;;;;;;;;;;1759818;80;21082;-59
2022/08/31 05:02:29;;;;;;;25.82;19.25;;;;;;;;;;1668981;84;21123;-59
2022/08/31 05:05:00;;;;;;;26.57;19.10;;;;;;;;;;1761296;80;21056;-59
2022/08/31 05:07:27;;;;;;;26.40;19.62;;;;;;;;;;1763632;80;21045;-59
2022/08/31 05:09:55;;;;;;;24.77;18.67;;;;;;;;;;1768072;80;20982;-59
2022/08/31 05:12:22;;;;;;;24.12;18.48;;;;;;;;;;1769778;80;21483;-60
2022/08/31 05:14:50;;;;;;;25.40;19.60;;;;;;;;;;1759566;80;21003;-59
2022/08/31 05:17:19;;;;;;;26.70;18.25;;;;;;;;;;1765226;80;21514;-60
2022/08/31 05:19:47;;;;;;;29.67;19.82;;;;;;;;;;1775163;80;21102;-60
2022/08/31 05:22:14;;;;;;;24.02;17.67;;;;;;;;;;1736113;80;21036;-60
2022/08/31 05:24:43;;;;;;;25.88;17.65;;;;;;;;;;1764204;80;21007;-61
2022/08/31 05:27:12;;;;;;;23.70;16.75;;;;;;;;;;1772985;80;20961;-60
2022/08/31 05:29:40;;;;;;;23.90;16.42;;;;;;;;;;1770211;80;21003;-61
2022/08/31 05:32:08;;;;;;;25.90;16.62;;;;;;;;;;1719110;80;21023;-59
2022/08/31 05:34:35;;;;;;;24.27;15.65;;;;;;;;;;1749956;81;21027;-60
2022/08/31 05:37:03;;;;;;;21.85;16.87;;;;;;;;;;1776508;80;21042;-60
2022/08/31 05:39:32;;;;;;;24.00;17.65;;;;;;;;;;1776758;80;21202;-59
2022/08/31 05:42:01;;;;;;;23.95;15.85;;;;;;;;;;1754783;80;21081;-59
2022/08/31 05:44:28;;;;;;;27.45;17.30;;;;;;;;;;1777110;80;21022;-60
2022/08/31 05:46:54;;;;;;;20.10;14.45;;;;;;;;;;1768307;80;21436;-60
2022/08/31 05:49:22;;;;;;;18.80;14.18;;;;;;;;;;1776078;79;21030;-60
2022/08/31 05:51:49;;;;;;;18.45;14.00;;;;;;;;;;1773994;80;21139;-60
2022/08/31 05:54:16;;;;;;;19.15;13.32;;;;;;;;;;1776325;80;21045;-60
2022/08/31 05:56:43;;;;;;;19.62;13.68;;;;;;;;;;1766497;80;21303;-60
2022/08/31 05:59:11;;;;;;;17.57;13.83;;;;;;;;;;1763584;80;21087;-61
2022/08/31 06:01:40;;;;;;;18.20;13.10;;;;;;;;;;1765869;80;21283;-60
2022/08/31 06:04:09;;;;;;;16.07;12.73;;;;;;;;;;1764005;80;21045;-61
2022/08/31 06:06:37;;;;;;;21.60;12.23;;;;;;;;;;1766383;80;21082;-60
2022/08/31 06:09:07;;;;;;;17.70;11.88;;;;;;;;;;1771828;79;21055;-60
2022/08/31 06:11:37;;;;;;;16.62;12.10;;;;;;;;;;1776825;80;21061;-60
2022/08/31 06:14:04;;;;;;;17.73;11.45;;;;;;;;;;1777568;79;21058;-60
2022/08/31 06:16:31;;;;;;;21.07;13.35;;;;;;;;;;1765562;79;21039;-59
2022/08/31 06:19:02;;;;;;;18.90;13.20;;;;;;;;;;1763133;80;21094;-60
2022/08/31 06:21:29;;;;;;;17.60;13.30;;;;;;;;;;1763282;80;21034;-60
2022/08/31 06:23:58;;;;;;;16.40;13.43;;;;;;;;;;1765009;80;21071;-61
2022/08/31 06:26:29;;;;;;;18.62;13.80;;;;;;;;;;1765664;80;21183;-60
2022/08/31 06:28:58;;;;;;;18.77;14.50;;;;;;;;;;1768438;80;21042;-60
2022/08/31 06:31:31;;;;;;;26.70;17.95;;;;;;;;;;1767132;80;21018;-61
2022/08/31 06:33:59;;;;;;;25.20;17.20;;;;;;;;;;1776062;79;21043;-60
2022/08/31 06:36:47;;;;;;;30.08;17.62;;;;;;;;;;1774934;79;21507;-61
2022/08/31 06:39:22;;;;;;;30.55;18.98;;;;;;;;;;1760815;81;21031;-62
2022/08/31 06:41:59;;;;;;;30.15;18.62;;;;;;;;;;1741599;82;21035;-61
2022/08/31 06:44:28;;;;;;;27.22;17.80;;;;;;;;;;1761445;80;21075;-61
2022/08/31 06:46:57;;;;;;;23.15;16.65;;;;;;;;;;1765852;81;21031;-60
2022/08/31 06:49:26;;;;;;;28.95;16.40;;;;;;;;;;1772374;80;21089;-60
2022/08/31 06:51:53;;;;;;;27.25;16.15;;;;;;;;;;1776944;80;21031;-61
2022/08/31 06:54:20;;;;;;;24.98;16.05;;;;;;;;;;1777829;79;21085;-60
2022/08/31 06:57:05;;;;;;;27.58;16.25;;;;;;;;;;1772279;80;21070;-60
2022/08/31 06:59:52;;;;;;;20.35;16.27;;;;;;;;;;1770899;79;21079;-60
2022/08/31 07:02:36;;;;;;;25.32;15.78;;;;;;;;;;1761525;81;21098;-60
2022/08/31 07:05:04;;;;;;;19.23;14.68;;;;;;;;;;1766204;80;21077;-61
2022/08/31 07:07:32;;;;;;;18.40;13.10;;;;;;;;;;1773287;80;21053;-60
2022/08/31 07:09:59;;;;;;;17.87;13.55;;;;;;;;;;1765504;81;21062;-61
2022/08/31 07:12:26;;;;;;;19.45;13.78;;;;;;;;;;1768075;80;21051;-60
2022/08/31 07:14:54;;;;;;;16.67;13.25;;;;;;;;;;1769792;79;21038;-60
2022/08/31 07:17:22;;;;;;;16.55;13.30;;;;;;;;;;1777507;80;21554;-60
2022/08/31 07:19:49;;;;;;;14.90;11.95;;;;;;;;;;1776186;80;21023;-61
2022/08/31 07:22:17;;;;;;;19.50;12.00;;;;;;;;;;1775487;80;21582;-60
2022/08/31 07:24:45;;;;;;;17.67;11.40;;;;;;;;;;1770475;80;21034;-60
2022/08/31 07:27:17;;;;;;;16.57;11.10;;;;;;;;;;1775176;80;21038;-61
2022/08/31 07:29:58;;;;;;;14.58;10.38;;;;;;;;;;1769589;80;21023;-60
2022/08/31 07:32:25;;;;;;;15.25;10.35;;;;;;;;;;1764582;80;21109;-61
2022/08/31 07:34:52;;;;;;;17.05;10.60;;;;;;;;;;1767203;80;21051;-62
2022/08/31 07:42:54;;;;;;;16.32;10.70;;;;;;;;;;1776450;80;21066;-61
2022/08/31 07:45:23;;;;;;;11.50;9.38;;;;;;;;;;1776678;80;21081;-60
2022/08/31 07:47:52;;;;;;;12.07;8.95;;;;;;;;;;1776519;80;21015;-60
2022/08/31 07:50:20;;;;;;;10.90;9.25;;;;;;;;;;1777203;80;21077;-60
2022/08/31 07:52:54;;;;;;;13.88;9.60;;;;;;;;;;1760966;80;21039;-61
2022/08/31 07:55:27;;;;;;;14.40;9.80;;;;;;;;;;1736506;80;21015;-61
2022/08/31 07:57:56;;;;;;;13.72;9.55;;;;;;;;;;1774753;80;21141;-60
2022/08/31 08:00:25;;;;;;;12.53;9.00;;;;;;;;;;1774155;80;21055;-60
2022/08/31 08:02:54;;;;;;;11.43;9.63;;;;;;;;;;1775903;80;21151;-61
2022/08/31 08:05:25;;;;;;;23.62;11.88;;;;;;;;;;1775913;80;21530;-60
2022/08/31 08:08:10;;;;;;;17.65;11.35;;;;;;;;;;1773334;80;21054;-61
2022/08/31 08:10:59;;;;;;;13.90;10.63;;;;;;;;;;1775721;79;21115;-61
2022/08/31 08:13:34;;;;;;;20.97;12.07;;;;;;;;;;1732912;81;21035;-60
2022/08/31 08:16:18;;;;;;;16.52;11.20;;;;;;;;;;1776633;80;22347;-61
2022/08/31 08:19:02;;;;;;;;;;;;;;;;;;1749346;81;21503;-61
2022/08/31 08:21:29;;;;;;;15.53;9.83;;;;;;;;;;1766058;80;20144;-61
2022/08/31 08:23:56;;;;;;;18.23;9.70;;;;;;;;;;1780170;79;21070;-61
2022/08/31 08:26:44;;;;;;;15.35;9.18;;;;;;;;;;1775676;79;21038;-61
2022/08/31 08:29:16;;;;;;;12.10;8.80;;;;;;;;;;1744799;81;21032;-60
2022/08/31 08:31:51;;;;;;;11.38;8.28;;;;;;;;;;1771408;80;21066;-60
2022/08/31 08:34:14;;;;;;;15.30;8.65;;;;;;;;;;1764052;81;21070;-60
2022/08/31 08:36:41;;;;;;;14.15;9.00;;;;;;;;;;1775314;79;21043;-61
2022/08/31 08:39:09;;;;;;;12.35;8.58;;;;;;;;;;1776441;80;22318;-60
2022/08/31 08:41:39;;;;;;;13.43;8.40;;;;;;;;;;1776481;80;21562;-61
2022/08/31 08:44:10;;;;;;;13.43;8.03;;;;;;;;;;1775318;79;21026;-61
2022/08/31 08:46:48;;;;;;;12.25;8.00;;;;;;;;;;1778642;80;21070;-61
2022/08/31 08:49:22;;;;;;;14.07;8.15;;;;;;;;;;1766572;80;21593;-62
2022/08/31 08:51:53;;;;;;;11.50;7.53;;;;;;;;;;1768005;80;21132;-61
2022/08/31 08:54:25;;;;;;;10.88;7.40;;;;;;;;;;1772778;80;21035;-61
2022/08/31 08:56:52;;;;;;;12.35;7.12;;;;;;;;;;1753223;80;21070;-61
2022/08/31 08:59:20;;;;;;;13.68;7.83;;;;;;;;;;1776544;79;21098;-61
2022/08/31 09:01:51;;;;;;;8.98;7.12;;;;;;;;;;1767749;80;21476;-61
2022/08/31 09:04:35;;;;;;;14.45;7.42;;;;;;;;;;1766961;80;21121;-60
2022/08/31 09:07:19;;;;;;;9.83;6.70;;;;;;;;;;1762009;80;21105;-60
2022/08/31 09:09:52;;;;;;;14.20;7.12;;;;;;;;;;1776357;80;21070;-61
2022/08/31 09:12:25;;;;;;;9.95;7.50;;;;;;;;;;1772105;79;21102;-61
2022/08/31 09:15:16;;;;;;;12.47;9.23;;;;;;;;;;1775857;79;21038;-60
2022/08/31 09:18:14;;;;;;;9.45;8.43;;;;;;;;;;1744590;80;21503;-60
2022/08/31 09:20:42;;;;;;;15.35;8.45;;;;;;;;;;1722084;82;21596;-60
2022/08/31 09:23:08;;;;;;;12.98;7.80;;;;;;;;;;1728044;82;21553;-60
2022/08/31 09:25:50;;;;;;;12.60;7.58;;;;;;;;;;1722872;82;21550;-60
2022/08/31 09:28:28;;;;;;;14.13;7.40;;;;;;;;;;1766647;81;21023;-61
2022/08/31 09:30:54;;;;;;;10.70;7.75;;;;;;;;;;1747699;80;21018;-60
2022/08/31 09:33:27;;;;;;;11.55;7.42;;;;;;;;;;1775662;80;21050;-61
2022/08/31 09:36:15;;;;;;;11.33;7.67;;;;;;;;;;1771909;80;21047;-61
2022/08/31 09:38:45;;;;;;;12.68;7.40;;;;;;;;;;1765897;79;21019;-61
2022/08/31 09:41:31;;;;;;;11.85;7.80;;;;;;;;;;1778270;80;21023;-61
2022/08/31 09:44:29;;;;;;;12.45;7.12;;;;;;;;;;1768309;80;21051;-60
2022/08/31 09:47:00;;;;;;;12.15;8.18;;;;;;;;;;1778259;80;21038;-60
2022/08/31 09:49:30;;;;;;;13.00;7.72;;;;;;;;;;1777245;80;21045;-61
2022/08/31 09:52:14;;;;;;;11.08;7.65;;;;;;;;;;1775285;80;21097;-61
2022/08/31 09:58:01;;;;;;;12.18;7.87;;;;;;;;;;1775120;80;21746;-60
2022/08/31 10:00:31;;;;;;;12.78;8.85;;;;;;;;;;1772840;80;21551;-61
2022/08/31 10:03:12;;;;;;;15.43;9.30;;;;;;;;;;1763664;79;21504;-62
2022/08/31 10:05:42;;;;;;;14.58;8.60;;;;;;;;;;1762219;80;21048;-61
2022/08/31 10:08:38;;;;;;;13.88;9.23;;;;;;;;;;1774457;80;21048;-60
2022/08/31 10:11:19;;;;;;;14.55;8.90;;;;;;;;;;1793576;79;21062;-62
2022/08/31 10:13:52;;;;;;;14.75;8.88;;;;;;;;;;1709258;83;21067;-61
2022/08/31 10:16:24;;;;;;;13.20;9.20;;;;;;;;;;1736350;82;21480;-60
2022/08/31 10:19:01;;;;;;;16.27;9.45;;;;;;;;;;1720391;82;21019;-61
2022/08/31 10:21:50;;;;;;;15.58;9.38;;;;;;;;;;1719932;81;21036;-60
2022/08/31 10:24:32;;;;;;;14.58;9.05;;;;;;;;;;1744479;81;21555;-60
2022/08/31 10:27:30;;;;;;;13.98;9.30;;;;;;;;;;1768996;80;21445;-60
2022/08/31 10:30:06;;;;;;;9.43;8.43;;;;;;;;;;1714319;83;21063;-60
2022/08/31 10:32:43;;;;;;;13.48;9.15;;;;;;;;;;1738659;82;21044;-61
2022/08/31 10:35:21;;;;;;;13.60;8.43;;;;;;;;;;1716522;82;21015;-61
2022/08/31 10:38:17;;;;;;;12.55;8.93;;;;;;;;;;1726882;82;21559;-61
2022/08/31 10:40:50;;;;;;;13.88;8.98;;;;;;;;;;1719332;81;21132;-61
2022/08/31 10:43:20;;;;;;;14.20;10.80;;;;;;;;;;1727708;81;21095;-61
2022/08/31 10:45:50;;;;;;;19.07;10.53;;;;;;;;;;1732404;81;21130;-60
2022/08/31 10:48:20;;;;;;;15.32;9.68;;;;;;;;;;1747577;81;21623;-61
2022/08/31 10:51:04;;;;;;;12.15;9.83;;;;;;;;;;1746411;81;21539;-62
2022/08/31 10:53:51;;;;;;;12.40;10.48;;;;;;;;;;1709747;81;21622;-61
2022/08/31 10:56:24;;;;;;;16.62;10.40;;;;;;;;;;1747982;81;21582;-61
2022/08/31 10:58:55;;;;;;;;;;;;;;;;;;1752719;80;21546;-62
2022/08/31 11:01:42;;;;;;;18.20;11.05;;;;;;;;;;1744275;81;20203;-61
2022/08/31 11:04:17;;;;;;;18.87;11.10;;;;;;;;;;1744796;81;21075;-61
2022/08/31 11:06:50;;;;;;;16.80;10.90;;;;;;;;;;1745311;81;21094;-61
2022/08/31 11:09:32;;;;;;;18.55;11.53;;;;;;;;;;1745525;81;21169;-60
2022/08/31 11:12:17;;;;;;;18.37;11.80;;;;;;;;;;1747304;80;21452;-61
2022/08/31 11:14:57;;;;;;;14.80;10.85;;;;;;;;;;1754462;79;21543;-61
2022/08/31 11:17:33;;;;;;;17.82;11.05;;;;;;;;;;1738427;81;21023;-61
2022/08/31 11:20:16;;;;;;;14.40;10.80;;;;;;;;;;1700714;80;21547;-61
2022/08/31 11:23:09;;;;;;;19.80;11.05;;;;;;;;;;1748279;80;22092;-61
2022/08/31 11:26:13;;;;;;;16.02;11.35;;;;;;;;;;1757005;79;21487;-61
2022/08/31 11:28:49;;;;;;;17.48;11.35;;;;;;;;;;1755709;81;21060;-61
2022/08/31 11:31:24;;;;;;;17.42;11.48;;;;;;;;;;1758955;80;21050;-61
2022/08/31 11:33:58;;;;;;;14.63;10.72;;;;;;;;;;1746181;81;21536;-60
2022/08/31 11:36:51;;;;;;;14.45;10.60;;;;;;;;;;1744838;81;21115;-61
2022/08/31 11:39:36;;;;;;;16.42;10.45;;;;;;;;;;1756045;80;21512;-61
2022/08/31 11:42:11;;;;;;;17.90;10.82;;;;;;;;;;1735449;80;21118;-60
2022/08/31 11:44:43;;;;;;;16.35;10.48;;;;;;;;;;1755997;80;21083;-61
2022/08/31 11:47:28;;;;;;;19.92;10.78;;;;;;;;;;1755154;80;21054;-62
2022/08/31 11:49:58;;;;;;;16.07;10.18;;;;;;;;;;1771630;79;21083;-61
2022/08/31 11:52:28;;;;;;;12.53;10.05;;;;;;;;;;1747835;80;21101;-63
2022/08/31 11:54:59;;;;;;;13.48;10.00;;;;;;;;;;1764597;80;21483;-61
2022/08/31 11:57:30;;;;;;;17.45;11.12;;;;;;;;;;1764483;79;21573;-61
2022/08/31 11:59:58;;;;;;;15.60;10.50;;;;;;;;;;1700535;82;21056;-61
2022/08/31 12:02:29;;;;;;;13.75;10.32;;;;;;;;;;1723610;82;21008;-61
2022/08/31 12:04:59;;;;;;;15.90;10.68;;;;;;;;;;1723452;82;21030;-61
2022/08/31 12:07:44;;;;;;;13.30;10.15;;;;;;;;;;1722117;82;21083;-61
2022/08/31 12:10:21;;;;;;;17.70;9.80;;;;;;;;;;1731910;83;21049;-62
2022/08/31 12:13:26;;;;;;;12.82;10.15;;;;;;;;;;1730378;82;21075;-60
2022/08/31 12:16:17;;;;;;;14.40;10.10;;;;;;;;;;1719935;82;21511;-60
2022/08/31 12:25:43;;;;;;;14.30;10.05;;;;;;;;;;1720381;82;21042;-61
2022/08/31 12:28:22;;;;;;;11.65;8.70;;;;;;;;;;1719308;82;21079;-61
2022/08/31 12:30:56;;;;;;;13.22;8.30;;;;;;;;;;1724546;82;21139;-60
2022/08/31 12:33:24;;;;;;;10.95;7.87;;;;;;;;;;1721391;82;21003;-60
2022/08/31 12:36:13;;;;;;;9.28;7.92;;;;;;;;;;1721444;82;21005;-60
2022/08/31 12:38:41;;;;;;;14.18;8.08;;;;;;;;;;1728108;82;21079;-60
2022/08/31 12:41:12;;;;;;;12.45;8.05;;;;;;;;;;1735415;82;21556;-60
2022/08/31 12:43:44;;;;;;;12.75;8.38;;;;;;;;;;1725708;82;21552;-61
2022/08/31 12:46:21;;;;;;;11.00;8.43;;;;;;;;;;1730379;82;21099;-59
2022/08/31 12:49:15;;;;;;;11.57;7.92;;;;;;;;;;1722322;82;21552;-59
2022/08/31 12:51:54;;;;;;;13.63;9.03;;;;;;;;;;1725289;82;21039;-60
2022/08/31 12:54:48;;;;;;;14.25;9.03;;;;;;;;;;1732000;82;21039;-59
2022/08/31 12:57:24;;;;;;;12.07;9.25;;;;;;;;;;1720586;82;21019;-59
2022/08/31 13:00:16;;;;;;;11.57;9.15;;;;;;;;;;1719666;82;21130;-60
2022/08/31 13:02:47;;;;;;;16.25;9.78;;;;;;;;;;1731972;82;21055;-59
2022/08/31 13:05:16;;;;;;;14.00;9.53;;;;;;;;;;1725487;82;21055;-60
2022/08/31 13:07:43;;;;;;;10.70;9.35;;;;;;;;;;1730651;82;21530;-59
2022/08/31 13:10:17;;;;;;;13.25;9.45;;;;;;;;;;1723271;82;21118;-60
2022/08/31 13:12:52;;;;;;;13.22;10.43;;;;;;;;;;1721143;82;21619;-59
2022/08/31 13:15:25;;;;;;;12.78;9.98;;;;;;;;;;1727848;82;21100;-59
2022/08/31 13:17:53;;;;;;;12.85;9.58;;;;;;;;;;1726234;82;21479;-60
2022/08/31 13:20:23;;;;;;;13.13;9.68;;;;;;;;;;1721175;82;21568;-60
2022/08/31 13:23:01;;;;;;;17.32;9.33;;;;;;;;;;1735498;82;21091;-59
2022/08/31 13:25:35;;;;;;;12.00;9.23;;;;;;;;;;1730081;82;21156;-59
2022/08/31 13:28:13;;;;;;;15.30;9.23;;;;;;;;;;1724374;82;21035;-59
2022/08/31 13:30:41;;;;;;;12.75;9.10;;;;;;;;;;1727821;82;21139;-59
2022/08/31 13:33:23;;;;;;;14.20;9.13;;;;;;;;;;1725144;82;21058;-60
2022/08/31 13:35:54;;;;;;;11.90;8.95;;;;;;;;;;1723985;82;21039;-60
2022/08/31 13:38:39;;;;;;;10.32;8.30;;;;;;;;;;1729136;82;21062;-60
2022/08/31 13:40:51;;;;;;;14.18;8.55;;;;;;;;;;1732850;82;21032;-60
2022/08/31 13:43:25;;;;;;;10.03;8.13;;;;;;;;;;1725807;82;21615;-60
2022/08/31 13:45:56;;;;;;;12.00;9.00;;;;;;;;;;1730002;82;21024;-60
2022/08/31 13:48:37;;;;;;;15.18;9.93;;;;;;;;;;1730204;82;21035;-61
2022/08/31 13:51:12;;;;;;;11.40;8.88;;;;;;;;;;1722668;82;21064;-60
2022/08/31 13:53:45;;;;;;;12.73;9.78;;;;;;;;;;1730155;82;21135;-61
2022/08/31 13:59:22;;;;;;;14.65;9.00;;;;;;;;;;1723951;82;21097;-60
2022/08/31 14:02:23;;;;;;;12.23;9.88;;;;;;;;;;1727967;82;21060;-61
2022/08/31 14:07:34;;;;;;;15.60;9.28;;;;;;;;;;1739178;82;21532;-60
2022/08/31 14:10:18;;;;;;;11.90;8.70;;;;;;;;;;1725197;82;21629;-61
2022/08/31 14:12:50;;;;;;;;;;;;;;;;;;1727400;82;21052;-61
2022/08/31 14:15:23;;;;;;;11.85;9.90;;;;;;;;;;1734122;82;20112;-61
2022/08/31 14:17:57;;;;;;;13.35;10.00;;;;;;;;;;1700052;83;21063;-61
2022/08/31 14:20:34;;;;;;;13.78;10.03;;;;;;;;;;1726181;82;21025;-60
2022/08/31 14:23:27;;;;;;;15.65;9.95;;;;;;;;;;1721460;82;21589;-60
2022/08/31 14:25:57;;;;;;;13.68;9.63;;;;;;;;;;1718227;82;21515;-61
2022/08/31 14:28:39;;;;;;;19.45;10.08;;;;;;;;;;1717289;82;21051;-60
2022/08/31 14:30:54;;;;;;;13.85;9.30;;;;;;;;;;1721856;83;21095;-60
2022/08/31 14:33:22;;;;;;;13.60;9.33;;;;;;;;;;1722307;82;21056;-61
2022/08/31 14:35:53;;;;;;;13.83;10.18;;;;;;;;;;1727161;82;21028;-60
2022/08/31 14:38:18;;;;;;;13.50;9.60;;;;;;;;;;1728026;83;21143;-60
2022/08/31 14:40:45;;;;;;;13.83;9.80;;;;;;;;;;1731167;83;21080;-60
2022/08/31 14:43:15;;;;;;;10.72;9.18;;;;;;;;;;1727049;82;21060;-60
2022/08/31 14:45:43;;;;;;;14.25;9.75;;;;;;;;;;1718549;82;21067;-60
2022/08/31 14:48:15;;;;;;;12.88;9.83;;;;;;;;;;1736203;82;21058;-60
2022/08/31 14:50:39;;;;;;;12.28;9.23;;;;;;;;;;1723794;82;21076;-61
2022/08/31 14:53:09;;;;;;;14.68;10.08;;;;;;;;;;1719209;82;21491;-61
2022/08/31 14:55:37;;;;;;;11.30;9.60;;;;;;;;;;1719975;82;21058;-61
2022/08/31 14:58:07;;;;;;;14.58;9.75;;;;;;;;;;1725692;82;21645;-61
2022/08/31 15:00:38;;;;;;;11.38;9.50;;;;;;;;;;1730002;82;21603;-61
2022/08/31 15:03:05;;;;;;;14.83;9.90;;;;;;;;;;1705919;82;21122;-61
2022/08/31 15:05:37;;;;;;;10.50;9.40;;;;;;;;;;1728256;82;21091;-61
2022/08/31 15:08:02;;;;;;;15.75;10.82;;;;;;;;;;1724300;82;21162;-61
2022/08/31 15:10:30;;;;;;;17.87;10.50;;;;;;;;;;1724162;82;21552;-60
2022/08/31 15:13:06;;;;;;;13.13;9.38;;;;;;;;;;1726455;82;21314;-61
2022/08/31 15:15:28;;;;;;;12.43;10.35;;;;;;;;;;1721284;82;21068;-60
2022/08/31 15:17:56;;;;;;;18.98;10.45;;;;;;;;;;1720279;82;21051;-60
2022/08/31 15:20:23;;;;;;;14.58;9.88;;;;;;;;;;1723732;82;21568;-60
2022/08/31 15:22:49;;;;;;;16.52;10.00;;;;;;;;;;1728034;82;21094;-61